Aeroporto :
LOGIN :

Iscrizione | Disclaimer

   EN    FR    IT 

 










Sommario :    VFR   VFR Marginale   IFR   IFR Intensivo   IFR Molto Intensivo
Visibilità : 
Base nubi : 
>= 8 km
>= 3000ft
5 / 8 km
1000 / 3000 ft
1500m / 5 km
500 / 1000 ft
800 / 1500m
200 / 500 ft
< 800m
< 200 ft
Simboli :   Temporali  Nebbia  Neve Forte  Precipitazioni Forti  Vento > 20 kt
SIGMETs :   Varie  Temporali  Ghiacco  Turbolenza  Onda orograficha  Ceneri Vulcaniche






- Altitudine del aeroporto : 580 ft


LFOA - Avord

ULTIMO METAR :
  • 110200Z AUTO 20004KT CAVOK 05/02 Q1016

METARs OBSOLETI :
  • 110130Z AUTO 17006KT 9999 FEW024/// BKN050/// OVC064/// ///TCU 05/02 Q1016 BECMG SCT005 BKN012
  • 110100Z AUTO 18010KT 9999 -RA FEW044/// BKN082/// OVC100/// ///TCU 05/01 Q1017 BECMG BKN030 BKN050
  • 110030Z AUTO 18008KT 9999 BKN036/// BKN044/// OVC058/// ///CB 06/01 Q1018 BECMG BKN030 BKN050
  • 110000Z AUTO 17006KT 9999 OVC045/// ///TCU 05/01 Q1018 BECMG BKN030 BKN050
  • 102330Z AUTO 17007KT 9999 BKN047 BKN076 OVC100 05/01 Q1019 NOSIG

TAF TAF LFOA
Valido dal 10 a 21 ore il 11 a 21 ore UTC


102000Z 1021/1121 17006KT CAVOK
BECMG 1021/1023 -RA BKN030 BKN050
BECMG 1103/1105 SCT005 BKN012
TEMPO 1105/1110 3000 RADZ BKN005
BECMG 1110/1112 25010G20KT NSW SCT015
PROB30
TEMPO 1114/1121 4000 -SHRA BKN020TCU



MetMap, La meteo Aeronautica in un colpo d'occhio ! - Copyright ORBIFLY Dicembre 2007 - Disclaimer

ORBIFLY MET'MAP TEAM :

Programmazione e sviluppo : Alexandra Zaïnal
Concezione : Baudouin d'Aumeries
Aiuto per la programmazione : Marc-Olivier Méhu
Supporto tecnico e logistico : Manuel Goepfert
Aiuto per la traduzione : Arnaldo La Scala

Contatto : metmap@orbifly.com




FONTI E CREDITI :

   NOAA